Time;durP1;ratioP1;P1;durP2;ratioP2;P2;SDS_P1;SDS_P2;PMS_P1;PMS_P2;Temp;Humidity;BMP_temperature;BMP_pressure;BME280_temperature;BME280_humidity;BME280_pressure;Samples;Min_cycle;Max_cycle;Signal;HPM_P1;HPM_P2
2023/01/25 00:02:03;;;;;;;46.05;26.58;;;;;;;-1.36;100.00;103930.88;5115111;28;20073;-77
2023/01/25 00:04:29;;;;;;;43.72;24.85;;;;;;;-1.38;100.00;103916.94;5114819;28;20085;-78
2023/01/25 00:06:54;;;;;;;44.25;24.50;;;;;;;-1.38;100.00;103911.72;5113745;28;20028;-77
2023/01/25 00:09:21;;;;;;;49.58;25.98;;;;;;;-1.37;100.00;103912.59;5114416;27;20484;-77
2023/01/25 00:11:46;;;;;;;48.45;25.70;;;;;;;-1.38;100.00;103914.34;5114680;28;20157;-77
2023/01/25 00:14:13;;;;;;;47.05;26.08;;;;;;;-1.39;100.00;103909.09;5114937;28;20106;-77
2023/01/25 00:16:39;;;;;;;45.05;25.27;;;;;;;-1.38;100.00;103905.63;5115336;28;20363;-76
2023/01/25 00:19:06;;;;;;;45.83;25.23;;;;;;;-1.43;100.00;103906.47;5114697;28;20040;-77
2023/01/25 00:21:33;;;;;;;44.17;25.65;;;;;;;-1.43;100.00;103905.59;5113174;28;20047;-77
2023/01/25 00:23:59;;;;;;;46.65;25.23;;;;;;;-1.44;100.00;103896.88;5114813;28;20468;-77
2023/01/25 00:26:24;;;;;;;47.55;26.33;;;;;;;-1.45;100.00;103894.25;5114694;28;20138;-78
2023/01/25 00:28:52;;;;;;;47.15;25.95;;;;;;;-1.45;100.00;103895.13;5113057;28;20039;-77
2023/01/25 00:31:49;;;;;;;49.65;27.33;;;;;;;-1.45;100.00;103882.06;5114404;28;20028;-77
2023/01/25 00:34:23;;;;;;;52.85;26.48;;;;;;;-1.42;100.00;103884.72;5114394;28;20036;-77
2023/01/25 00:37:11;;;;;;;44.78;25.98;;;;;;;-1.46;100.00;103882.94;5115321;28;20055;-77
2023/01/25 00:39:38;;;;;;;48.55;25.25;;;;;;;-1.44;100.00;103886.41;5113177;28;20035;-77
2023/01/25 00:42:03;;;;;;;46.63;25.40;;;;;;;-1.45;100.00;103878.56;5114158;28;20039;-77
2023/01/25 00:44:29;;;;;;;46.38;24.52;;;;;;;-1.46;100.00;103879.47;5114182;28;20032;-77
2023/01/25 00:46:54;;;;;;;50.08;26.15;;;;;;;-1.44;100.00;103877.72;5112986;28;20110;-77
2023/01/25 00:49:22;;;;;;;49.05;25.92;;;;;;;-1.45;100.00;103873.34;5114040;28;20115;-77
2023/01/25 00:51:49;;;;;;;47.28;24.80;;;;;;;-1.43;100.00;103879.47;5114085;28;20085;-77
2023/01/25 00:54:14;;;;;;;46.03;26.05;;;;;;;-1.43;100.00;103874.25;5113359;28;20042;-77
2023/01/25 00:56:39;;;;;;;47.95;26.75;;;;;;;-1.44;100.00;103870.75;5113844;28;20039;-77
2023/01/25 00:59:05;;;;;;;51.55;26.38;;;;;;;-1.44;100.00;103870.75;5114604;28;20039;-77
2023/01/25 01:01:31;;;;;;;46.70;25.42;;;;;;;-1.44;100.00;103873.34;5114352;28;20028;-77
2023/01/25 01:03:56;;;;;;;52.50;26.75;;;;;;;-1.43;100.00;103874.25;5112608;28;20036;-77
2023/01/25 01:06:22;;;;;;;49.53;26.85;;;;;;;-1.43;100.00;103876.88;5114547;28;20066;-77
2023/01/25 01:08:47;;;;;;;46.05;26.45;;;;;;;-1.45;100.00;103869.03;5113716;28;20126;-78
2023/01/25 01:11:12;;;;;;;49.03;26.60;;;;;;;-1.45;100.00;103868.13;5113817;28;20059;-78
2023/01/25 01:13:39;;;;;;;45.60;24.95;;;;;;;-1.46;100.00;103864.66;5113914;28;20036;-77
2023/01/25 01:16:07;;;;;;;50.63;26.60;;;;;;;-1.46;100.00;103867.25;5113834;28;20498;-77
2023/01/25 01:18:34;;;;;;;45.20;24.77;;;;;;;-1.47;100.00;103867.25;5113650;28;20031;-76
2023/01/25 01:21:00;;;;;;;46.58;26.92;;;;;;;-1.46;100.00;103874.22;5114046;28;20084;-77
2023/01/25 01:23:27;;;;;;;51.63;27.20;;;;;;;-1.48;100.00;103874.22;5114300;28;20038;-76
2023/01/25 01:25:53;;;;;;;52.85;25.58;;;;;;;-1.47;100.00;103868.09;5113753;28;20065;-77
2023/01/25 01:28:18;;;;;;;50.63;26.85;;;;;;;-1.47;100.00;103868.09;5112943;28;20043;-77
2023/01/25 01:30:43;;;;;;;49.63;25.85;;;;;;;-1.49;100.00;103862.00;5113661;28;20476;-78
2023/01/25 01:33:09;;;;;;;52.67;26.75;;;;;;;-1.49;100.00;103861.16;5114174;28;20080;-77
2023/01/25 01:35:34;;;;;;;46.50;26.45;;;;;;;-1.50;100.00;103860.25;5113532;28;20056;-78
2023/01/25 01:38:00;;;;;;;51.28;26.40;;;;;;;-1.49;100.00;103866.38;5113905;28;20023;-78
2023/01/25 01:40:25;;;;;;;52.67;27.13;;;;;;;-1.49;100.00;103866.38;5113995;28;20489;-78
2023/01/25 01:43:00;;;;;;;52.17;28.13;;;;;;;-1.50;100.00;103868.09;5113714;28;20023;-78
2023/01/25 01:45:56;;;;;;;49.97;27.17;;;;;;;-1.49;100.00;103868.97;5114990;28;20383;-77
2023/01/25 01:48:36;;;;;;;54.95;27.40;;;;;;;-1.50;100.00;103873.31;5098733;28;20092;-77
2023/01/25 01:51:15;;;;;;;47.17;25.00;;;;;;;-1.50;100.00;103867.22;5113750;28;20152;-78
2023/01/25 01:54:08;;;;;;;50.80;26.33;;;;;;;-1.58;100.00;103867.16;5113336;28;20070;-78
2023/01/25 01:56:39;;;;;;;55.35;26.98;;;;;;;-1.59;100.00;103854.97;5113215;28;20463;-77
2023/01/25 01:59:06;;;;;;;52.50;26.58;;;;;;;-1.58;100.00;103861.94;5113099;28;20503;-77
2023/01/25 02:01:32;;;;;;;50.67;26.98;;;;;;;-1.58;100.00;103854.09;5113364;28;20046;-78
2023/01/25 02:03:59;;;;;;;50.83;26.98;;;;;;;-1.58;100.00;103859.31;5113344;28;20031;-78
2023/01/25 02:06:32;;;;;;;51.65;27.55;;;;;;;-1.56;100.00;103865.44;5113404;28;20032;-78
2023/01/25 02:08:57;;;;;;;51.83;26.92;;;;;;;-1.57;100.00;103845.38;5113748;28;20053;-79
2023/01/25 02:11:25;;;;;;;50.55;27.13;;;;;;;-1.56;100.00;103857.59;5114167;28;20110;-78
2023/01/25 02:13:52;;;;;;;50.38;26.25;;;;;;;-1.56;100.00;103854.13;5115314;28;20091;-78
2023/01/25 02:16:23;;;;;;;49.13;27.70;;;;;;;-1.57;100.00;103853.22;5116542;28;20063;-79
2023/01/25 02:18:49;;;;;;;52.90;26.90;;;;;;;-1.59;100.00;103844.50;5115957;28;20028;-78
2023/01/25 02:21:14;;;;;;;48.53;27.23;;;;;;;-1.59;100.00;103849.72;5117577;28;20353;-78
2023/01/25 02:23:46;;;;;;;54.85;27.42;;;;;;;-1.60;100.00;103846.25;5116480;28;20067;-79
2023/01/25 02:26:14;;;;;;;56.80;27.55;;;;;;;-1.57;100.00;103847.13;5117357;28;20045;-78
2023/01/25 02:28:49;;;;;;;47.42;26.35;;;;;;;-1.61;100.00;103848.84;5115969;28;20468;-78
2023/01/25 02:31:15;;;;;;;53.13;27.30;;;;;;;-1.62;100.00;103845.34;5116469;28;20427;-78
2023/01/25 02:33:41;;;;;;;51.92;27.55;;;;;;;-1.63;100.00;103838.41;5115463;28;20070;-78
2023/01/25 02:36:07;;;;;;;51.38;26.92;;;;;;;-1.62;100.00;103834.03;5116128;28;20434;-77
2023/01/25 02:38:36;;;;;;;51.75;26.63;;;;;;;-1.64;100.00;103834.03;5116802;28;20028;-78
2023/01/25 02:41:07;;;;;;;50.92;25.77;;;;;;;-1.66;100.00;103827.91;5116676;28;20030;-79
2023/01/25 02:43:34;;;;;;;49.15;26.85;;;;;;;-1.66;100.00;103830.50;5116883;28;20093;-78
2023/01/25 02:46:10;;;;;;;47.72;26.42;;;;;;;-1.67;100.00;103831.38;5116406;28;20050;-78
2023/01/25 02:48:36;;;;;;;49.97;26.65;;;;;;;-1.66;100.00;103822.69;5116888;28;20027;-78
2023/01/25 02:51:05;;;;;;;49.83;26.90;;;;;;;-1.66;100.00;103820.06;5115080;28;20031;-77
2023/01/25 02:53:30;;;;;;;51.15;26.88;;;;;;;-1.66;100.00;103811.38;5116248;28;20067;-78
2023/01/25 02:55:55;;;;;;;55.25;26.30;;;;;;;-1.65;100.00;103813.13;5116389;28;20027;-78
2023/01/25 02:58:21;;;;;;;51.78;27.52;;;;;;;-1.66;100.00;103811.38;5115914;28;20027;-79
2023/01/25 03:00:46;;;;;;;51.15;27.42;;;;;;;-1.65;100.00;103806.16;5116674;28;20029;-77
2023/01/25 03:03:11;;;;;;;53.35;28.10;;;;;;;-1.65;100.00;103806.16;5116512;28;20038;-78
2023/01/25 03:05:37;;;;;;;53.38;28.08;;;;;;;-1.65;100.00;103803.53;5116534;28;20024;-78
2023/01/25 03:08:02;;;;;;;51.15;25.85;;;;;;;-1.66;100.00;103809.63;5116394;28;20036;-78
2023/01/25 03:10:28;;;;;;;48.47;27.27;;;;;;;-1.67;100.00;103802.66;5115832;28;20107;-78
2023/01/25 03:12:53;;;;;;;52.30;26.92;;;;;;;-1.68;100.00;103802.66;5116080;28;20032;-79
2023/01/25 03:15:18;;;;;;;52.92;27.52;;;;;;;-1.70;100.00;103793.91;5114465;28;20035;-78
2023/01/25 03:17:44;;;;;;;52.72;27.15;;;;;;;-1.71;100.00;103793.06;5115983;28;20136;-79
2023/01/25 03:20:10;;;;;;;50.70;26.80;;;;;;;-1.71;100.00;103797.41;5116174;28;20063;-78
2023/01/25 03:22:35;;;;;;;55.90;28.40;;;;;;;-1.72;100.00;103791.28;5114270;28;20038;-77
2023/01/25 03:25:01;;;;;;;49.55;25.88;;;;;;;-1.73;100.00;103794.78;5114438;28;20039;-78
2023/01/25 03:27:28;;;;;;;46.97;25.98;;;;;;;-1.77;100.00;103793.88;5114708;28;20110;-79
2023/01/25 03:29:54;;;;;;;53.05;27.80;;;;;;;-1.79;100.00;103798.22;5115961;28;20066;-77
2023/01/25 03:32:19;;;;;;;51.88;25.95;;;;;;;-1.81;100.00;103792.13;5115637;28;20038;-78
2023/01/25 03:34:45;;;;;;;53.78;27.20;;;;;;;-1.82;100.00;103792.06;5115269;28;20062;-79
2023/01/25 03:37:10;;;;;;;53.78;27.33;;;;;;;-1.84;100.00;103792.06;5115679;28;20135;-78
2023/01/25 03:39:35;;;;;;;48.40;25.50;;;;;;;-1.84;100.00;103794.69;5115329;28;20044;-76
2023/01/25 03:42:01;;;;;;;50.30;26.50;;;;;;;-1.84;100.00;103796.41;5114618;28;20119;-78
2023/01/25 03:44:26;;;;;;;47.63;25.17;;;;;;;-1.87;100.00;103784.22;5115960;28;20448;-78
2023/01/25 03:46:51;;;;;;;52.30;26.60;;;;;;;-1.89;100.00;103780.72;5115499;28;20032;-77
2023/01/25 03:49:17;;;;;;;56.35;28.35;;;;;;;-1.92;100.00;103778.09;5115349;28;20479;-78
2023/01/25 03:51:43;;;;;;;47.33;23.85;;;;;;;-1.93;100.00;103778.94;5115161;27;20115;-78
2023/01/25 03:54:09;;;;;;;50.75;26.67;;;;;;;-1.92;100.00;103777.22;5113997;28;20035;-78
2023/01/25 03:56:35;;;;;;;52.70;26.92;;;;;;;-1.91;100.00;103771.13;5115033;28;20035;-78
2023/01/25 03:59:00;;;;;;;49.00;25.63;;;;;;;-1.90;100.00;103772.88;5115039;28;20035;-78
2023/01/25 04:01:26;;;;;;;51.88;26.67;;;;;;;-1.90;100.00;103776.34;5115592;28;20462;-78
2023/01/25 04:03:51;;;;;;;53.35;26.58;;;;;;;-1.92;100.00;103770.25;5115241;28;20391;-78
2023/01/25 04:06:16;;;;;;;51.47;26.65;;;;;;;-1.92;100.00;103770.25;5114929;28;20387;-78
2023/01/25 04:08:42;;;;;;;57.60;28.25;;;;;;;-1.91;100.00;103769.41;5114649;28;20066;-78
2023/01/25 04:11:09;;;;;;;59.38;26.95;;;;;;;-1.90;100.00;103762.44;5114811;28;20031;-78
2023/01/25 04:13:36;;;;;;;53.05;27.23;;;;;;;-1.91;100.00;103758.97;5114722;28;20031;-78
2023/01/25 04:16:02;;;;;;;55.05;27.27;;;;;;;-1.91;100.00;103761.56;5115031;28;20028;-78
2023/01/25 04:18:28;;;;;;;49.13;26.00;;;;;;;-1.92;100.00;103751.97;5113538;28;20035;-78
2023/01/25 04:20:55;;;;;;;51.67;26.45;;;;;;;-1.93;100.00;103758.06;5114902;28;20073;-78
2023/01/25 04:23:21;;;;;;;50.42;25.85;;;;;;;-1.93;100.00;103755.44;5114588;28;20028;-77
2023/01/25 04:25:56;;;;;;;61.30;28.58;;;;;;;-1.92;100.00;103745.91;5114729;28;20024;-77
2023/01/25 04:28:22;;;;;;;54.05;26.90;;;;;;;-1.94;100.00;103745.88;5114832;28;20102;-78
2023/01/25 04:30:48;;;;;;;51.50;26.65;;;;;;;-1.93;100.00;103739.78;5113017;28;20039;-78
2023/01/25 04:33:13;;;;;;;52.72;27.73;;;;;;;-1.92;100.00;103744.16;5113213;28;20067;-79
2023/01/25 04:35:38;;;;;;;56.33;29.20;;;;;;;-1.94;100.00;103735.44;5114868;28;20079;-79
2023/01/25 04:38:04;;;;;;;55.78;27.60;;;;;;;-1.93;100.00;103738.91;5114676;28;20110;-78
2023/01/25 04:40:30;;;;;;;54.95;27.48;;;;;;;-1.93;100.00;103739.78;5114350;28;20119;-78
2023/01/25 04:42:56;;;;;;;54.45;27.38;;;;;;;-1.92;100.00;103741.53;5113619;28;20047;-79
2023/01/25 04:45:22;;;;;;;55.63;27.45;;;;;;;-1.93;100.00;103737.19;5113238;28;20028;-78
2023/01/25 04:47:48;;;;;;;52.90;27.52;;;;;;;-1.93;100.00;103734.56;5114160;28;20456;-79
2023/01/25 04:50:14;;;;;;;54.60;27.60;;;;;;;-1.94;100.00;103738.06;5114185;28;20122;-78
2023/01/25 04:52:39;;;;;;;59.67;28.10;;;;;;;-1.95;100.00;103736.31;5114385;28;20101;-78
2023/01/25 04:55:04;;;;;;;53.92;27.30;;;;;;;-1.95;100.00;103728.47;5114042;28;20115;-78
2023/01/25 04:57:30;;;;;;;55.38;26.70;;;;;;;-1.96;100.00;103729.31;5114188;28;20494;-79
2023/01/25 04:59:55;;;;;;;54.30;27.58;;;;;;;-1.95;100.00;103720.66;5114122;28;20388;-77
2023/01/25 05:02:21;;;;;;;50.97;25.88;;;;;;;-1.92;100.00;103718.06;5112773;28;20036;-78
2023/01/25 05:04:46;;;;;;;54.03;26.42;;;;;;;-1.93;100.00;103724.13;5112600;28;20037;-78
2023/01/25 05:07:11;;;;;;;59.03;29.02;;;;;;;-1.97;100.00;103733.69;5114018;28;20032;-78
2023/01/25 05:09:37;;;;;;;53.40;27.52;;;;;;;-2.03;100.00;103725.81;5113609;28;20111;-78
2023/01/25 05:12:02;;;;;;;51.67;25.83;;;;;;;-2.04;100.00;103734.47;5113745;28;20023;-78
2023/01/25 05:14:28;;;;;;;52.92;25.48;;;;;;;-2.06;100.00;103731.00;5113842;28;20468;-78
2023/01/25 05:16:53;;;;;;;53.90;25.65;;;;;;;-2.08;100.00;103731.84;5113779;28;20024;-79
2023/01/25 05:19:18;;;;;;;62.97;26.83;;;;;;;-2.10;100.00;103726.59;5113959;28;20031;-78
2023/01/25 05:21:59;;;;;;;58.63;26.48;;;;;;;-2.11;100.00;103726.59;5113618;28;20080;-77
2023/01/25 05:24:29;;;;;;;55.72;27.40;;;;;;;-2.10;100.00;103729.22;5113291;28;20035;-77
2023/01/25 05:27:04;;;;;;;58.70;28.10;;;;;;;-2.08;100.00;103729.22;5113844;28;20460;-78
2023/01/25 05:29:35;;;;;;;60.10;28.30;;;;;;;-2.10;100.00;103730.97;5113744;28;20023;-78
2023/01/25 05:32:15;;;;;;;58.72;28.50;;;;;;;-2.12;100.00;103720.47;5113899;28;20038;-77
2023/01/25 05:34:41;;;;;;;59.22;27.45;;;;;;;-2.10;100.00;103723.13;5113698;28;20023;-79
2023/01/25 05:37:08;;;;;;;59.63;28.27;;;;;;;-2.10;100.00;103718.78;5113531;28;20052;-78
2023/01/25 05:39:34;;;;;;;57.20;28.50;;;;;;;-2.10;100.00;103716.16;5113627;28;20027;-77
2023/01/25 05:42:00;;;;;;;62.22;28.67;;;;;;;-2.09;100.00;103711.81;5113811;28;20077;-78
2023/01/25 05:44:25;;;;;;;61.38;29.83;;;;;;;-2.09;100.00;103714.44;5113530;28;20040;-76
2023/01/25 05:46:50;;;;;;;71.57;33.10;;;;;;;-2.07;100.00;103710.97;5113836;28;20409;-79
2023/01/25 05:49:17;;;;;;;70.03;31.40;;;;;;;-2.09;100.00;103704.00;5114005;28;20036;-79
2023/01/25 05:51:43;;;;;;;73.60;33.13;;;;;;;-2.10;100.00;103707.47;5117233;28;20031;-79
2023/01/25 05:54:12;;;;;;;73.65;31.42;;;;;;;-2.11;100.00;103711.81;5117747;28;20035;-78
2023/01/25 05:56:37;;;;;;;72.40;30.98;;;;;;;-2.10;100.00;103715.31;5117420;28;20059;-78
2023/01/25 05:59:03;;;;;;;70.35;31.35;;;;;;;-2.09;100.00;103724.88;5117501;28;20058;-79
2023/01/25 06:01:28;;;;;;;72.65;31.80;;;;;;;-2.14;100.00;103725.69;5117900;28;20039;-79
2023/01/25 06:03:54;;;;;;;69.63;32.33;;;;;;;-2.10;100.00;103730.97;5118007;28;20037;-77
2023/01/25 06:06:20;;;;;;;69.03;30.70;;;;;;;-2.10;100.00;103728.34;5117484;28;20038;-78
2023/01/25 06:08:46;;;;;;;67.95;32.20;;;;;;;-2.14;100.00;103728.28;5117409;28;20063;-78
2023/01/25 06:11:15;;;;;;;74.53;32.08;;;;;;;-2.14;100.00;103735.25;5116892;28;20024;-80
2023/01/25 06:13:41;;;;;;;68.40;32.13;;;;;;;-2.15;100.00;103729.19;5117298;28;20097;-79
2023/01/25 06:16:07;;;;;;;76.78;33.08;;;;;;;-2.14;100.00;103724.81;5117109;28;20030;-80
2023/01/25 06:18:34;;;;;;;77.45;32.95;;;;;;;-2.12;100.00;103723.09;5117099;28;20031;-78
2023/01/25 06:21:01;;;;;;;70.65;32.38;;;;;;;-2.14;100.00;103717.84;5117003;28;20484;-80
2023/01/25 06:23:27;;;;;;;67.78;32.38;;;;;;;-2.15;100.00;103718.75;5117454;28;20042;-81
2023/01/25 06:25:57;;;;;;;66.47;30.88;;;;;;;-2.14;100.00;103723.06;5117093;28;20035;-81
2023/01/25 06:28:22;;;;;;;67.85;30.65;;;;;;;-2.14;100.00;103714.38;5117260;28;20036;-79
2023/01/25 06:30:48;;;;;;;76.50;33.05;;;;;;;-2.14;100.00;103710.03;5116770;27;20043;-79
2023/01/25 06:33:13;;;;;;;72.95;32.78;;;;;;;-2.13;100.00;103717.00;5116982;28;20444;-79
2023/01/25 06:35:39;;;;;;;67.95;30.42;;;;;;;-2.11;100.00;103708.34;5116800;28;20031;-77
2023/01/25 06:38:05;;;;;;;66.85;31.35;;;;;;;-2.11;100.00;103713.56;5117671;27;20052;-77
2023/01/25 06:40:30;;;;;;;70.95;32.85;;;;;;;-2.11;100.00;103716.16;5115001;28;20044;-78
2023/01/25 06:43:04;;;;;;;72.45;32.22;;;;;;;-2.18;100.00;103717.81;5116827;28;20072;-78
2023/01/25 06:45:30;;;;;;;65.78;30.17;;;;;;;-2.21;100.00;103716.09;5115406;28;20028;-77
2023/01/25 06:47:55;;;;;;;71.65;30.90;;;;;;;-2.21;100.00;103710.88;5116260;28;20452;-77
2023/01/25 06:50:21;;;;;;;74.10;32.75;;;;;;;-2.21;100.00;103705.66;5116282;28;20523;-78
2023/01/25 06:52:55;;;;;;;67.85;31.92;;;;;;;-2.20;100.00;103709.13;5116609;27;20506;-79
2023/01/25 06:55:21;;;;;;;69.35;31.40;;;;;;;-2.18;100.00;103712.59;5116788;28;20038;-79
2023/01/25 06:57:47;;;;;;;68.75;31.90;;;;;;;-2.17;100.00;103712.63;5116171;28;20156;-79
2023/01/25 07:00:14;;;;;;;70.72;32.00;;;;;;;-2.15;100.00;103704.81;5116023;28;20468;-80
2023/01/25 07:02:39;;;;;;;71.90;32.67;;;;;;;-2.14;100.00;103703.94;5116161;28;20468;-80
2023/01/25 07:05:05;;;;;;;69.35;32.60;;;;;;;-2.13;100.00;103711.78;5115186;28;20067;-79
2023/01/25 07:07:30;;;;;;;73.97;33.85;;;;;;;-2.13;100.00;103703.97;5117413;28;20069;-82
2023/01/25 07:09:57;;;;;;;75.55;34.25;;;;;;;-2.12;100.00;103697.00;5119942;28;20119;-83
2023/01/25 07:12:24;;;;;;;67.40;31.20;;;;;;;-2.08;100.00;103700.53;5116303;28;20065;-81
2023/01/25 07:14:50;;;;;;;72.32;32.55;;;;;;;-2.06;100.00;103706.63;5119629;28;20140;-85
2023/01/25 07:17:15;;;;;;;75.53;33.03;;;;;;;-2.07;100.00;103707.50;5124964;28;20046;-82
2023/01/25 07:19:40;;;;;;;77.60;31.98;;;;;;;-2.09;100.00;103702.28;5114551;28;20027;-82
2023/01/25 07:22:06;;;;;;;76.05;33.70;;;;;;;-2.06;100.00;103701.41;5115874;28;20362;-83
2023/01/25 07:24:31;;;;;;;70.38;33.55;;;;;;;-2.06;100.00;103694.47;5115994;28;20081;-82
2023/01/25 07:26:57;;;;;;;72.25;31.77;;;;;;;-2.05;100.00;103695.34;5116095;27;20031;-87
2023/01/25 07:29:22;;;;;;;67.90;32.15;;;;;;;-2.04;100.00;103689.25;5115642;28;20384;-79
2023/01/25 07:31:48;;;;;;;77.63;32.85;;;;;;;-2.04;100.00;103689.25;5114456;28;20031;-80
2023/01/25 07:34:13;;;;;;;71.97;32.80;;;;;;;-2.02;100.00;103687.53;5114778;28;20027;-75
2023/01/25 07:36:39;;;;;;;71.18;33.53;;;;;;;-2.03;100.00;103683.16;5114777;28;20113;-78
2023/01/25 07:39:08;;;;;;;73.45;33.38;;;;;;;-2.00;100.00;103680.56;5115889;28;20039;-77
2023/01/25 07:41:33;;;;;;;78.03;33.83;;;;;;;-2.00;100.00;103681.47;5115278;28;20027;-78
2023/01/25 07:43:59;;;;;;;72.00;32.60;;;;;;;-1.98;100.00;103678.88;5115078;28;20051;-76
2023/01/25 07:46:24;;;;;;;72.57;33.13;;;;;;;-1.98;100.00;103674.50;5114508;28;20367;-74
2023/01/25 07:48:51;;;;;;;74.22;33.90;;;;;;;-1.97;100.00;103668.44;5113944;28;20087;-77
2023/01/25 07:51:25;;;;;;;75.57;34.22;;;;;;;-1.96;100.00;103661.47;5113804;28;20046;-81
2023/01/25 07:53:58;;;;;;;77.88;32.05;;;;;;;-1.96;100.00;103656.25;5115156;28;20028;-79
2023/01/25 07:56:26;;;;;;;77.60;34.30;;;;;;;-1.95;100.00;103661.47;5115153;28;20051;-79
2023/01/25 07:58:53;;;;;;;71.13;32.30;;;;;;;-1.92;100.00;103662.38;5114881;28;20507;-79
2023/01/25 08:01:23;;;;;;;75.18;33.92;;;;;;;-1.90;100.00;103658.91;5114714;28;20055;-78
2023/01/25 08:03:50;;;;;;;74.75;33.75;;;;;;;-1.88;100.00;103665.03;5115340;28;20028;-77
2023/01/25 08:06:16;;;;;;;82.88;34.85;;;;;;;-1.85;100.00;103667.66;5114519;28;20024;-77
2023/01/25 08:08:45;;;;;;;81.05;34.15;;;;;;;-1.83;100.00;103659.84;5123315;28;20031;-80
2023/01/25 08:11:21;;;;;;;79.78;35.10;;;;;;;-1.83;100.00;103658.09;5122760;28;20028;-79
2023/01/25 08:13:48;;;;;;;74.45;34.83;;;;;;;-1.83;100.00;103658.09;5113464;28;20057;-77
2023/01/25 08:16:25;;;;;;;74.82;34.42;;;;;;;-1.80;100.00;103659.84;5114818;28;20448;-79
2023/01/25 08:18:56;;;;;;;72.70;32.92;;;;;;;-1.81;100.00;103656.38;5114973;28;20032;-77
2023/01/25 08:21:24;;;;;;;73.05;33.42;;;;;;;-1.80;100.00;103658.09;5114433;28;20035;-78
2023/01/25 08:23:50;;;;;;;76.75;32.22;;;;;;;-1.79;100.00;103651.16;5114352;28;20024;-78
2023/01/25 08:26:18;;;;;;;69.07;32.65;;;;;;;-1.79;100.00;103651.16;5114288;27;20023;-77
2023/01/25 08:28:43;;;;;;;69.68;31.63;;;;;;;-1.78;100.00;103647.66;5114109;28;20051;-78
2023/01/25 08:31:12;;;;;;;74.95;32.90;;;;;;;-1.72;100.00;103646.84;5113257;28;20074;-77
2023/01/25 08:33:39;;;;;;;72.93;32.15;;;;;;;-1.69;100.00;103649.47;5114407;28;20015;-81
2023/01/25 08:36:06;;;;;;;71.10;31.38;;;;;;;-1.67;100.00;103648.63;5114367;28;20027;-82
2023/01/25 08:38:35;;;;;;;68.85;32.00;;;;;;;-1.66;100.00;103645.13;5114001;28;20097;-81
2023/01/25 08:41:12;;;;;;;70.55;31.75;;;;;;;-1.65;100.00;103652.09;5113901;28;20042;-78
2023/01/25 08:43:37;;;;;;;69.70;31.23;;;;;;;-1.63;100.00;103644.28;5114226;28;20443;-76
2023/01/25 08:46:03;;;;;;;73.03;32.60;;;;;;;-1.60;100.00;103647.78;5112933;28;20032;-74
2023/01/25 08:48:29;;;;;;;73.63;30.95;;;;;;;-1.57;100.00;103651.28;5114110;28;20519;-75
2023/01/25 08:50:54;;;;;;;67.68;31.40;;;;;;;-1.52;100.00;103644.31;5113847;28;20112;-83
2023/01/25 08:53:20;;;;;;;68.28;31.60;;;;;;;-1.48;100.00;103649.59;5116372;28;20027;-84
2023/01/25 08:55:45;;;;;;;64.40;29.35;;;;;;;-1.44;100.00;103653.94;5115785;28;20457;-78
2023/01/25 08:58:12;;;;;;;69.10;32.40;;;;;;;-1.43;100.00;103649.63;5114618;28;20028;-79
2023/01/25 09:00:39;;;;;;;61.03;30.05;;;;;;;-1.37;100.00;103651.34;5114634;28;20102;-78
2023/01/25 09:03:11;;;;;;;62.05;30.10;;;;;;;-1.36;100.00;103642.66;5113771;28;20074;-80
2023/01/25 09:05:38;;;;;;;64.85;30.63;;;;;;;-1.36;100.00;103645.28;5113561;28;20024;-78
2023/01/25 09:08:07;;;;;;;57.45;29.60;;;;;;;-1.34;100.00;103644.44;5113961;28;20090;-78
2023/01/25 09:10:33;;;;;;;65.60;30.52;;;;;;;-1.34;100.00;103640.97;5114293;28;20098;-80
2023/01/25 09:12:59;;;;;;;60.47;29.52;;;;;;;-1.39;100.00;103630.47;5114195;28;20435;-81
2023/01/25 09:15:24;;;;;;;68.25;32.00;;;;;;;-1.33;100.00;103632.22;5113870;28;20034;-81
2023/01/25 09:17:54;;;;;;;66.63;31.42;;;;;;;-1.30;100.00;103632.25;5112258;28;20028;-79
2023/01/25 09:20:20;;;;;;;73.82;31.05;;;;;;;-1.30;100.00;103632.25;5113798;28;20028;-76
2023/01/25 09:22:45;;;;;;;62.40;31.20;;;;;;;-1.29;100.00;103620.94;5113953;28;20439;-77
2023/01/25 09:25:11;;;;;;;69.50;32.45;;;;;;;-1.26;100.00;103621.81;5114842;28;20455;-83
2023/01/25 09:27:36;;;;;;;68.72;31.30;;;;;;;-1.26;100.00;103608.75;5117176;28;20102;-82
2023/01/25 09:30:04;;;;;;;65.70;31.35;;;;;;;-1.25;100.00;103609.63;5118365;28;20328;-79
2023/01/25 09:32:29;;;;;;;68.63;31.42;;;;;;;-1.20;100.00;103609.66;5118027;28;20513;-79
2023/01/25 09:34:54;;;;;;;62.72;30.48;;;;;;;-1.22;100.00;103611.34;5118005;28;20027;-80
2023/01/25 09:37:20;;;;;;;59.00;29.65;;;;;;;-1.20;100.00;103607.03;5117701;28;20051;-80
2023/01/25 09:39:45;;;;;;;65.22;31.13;;;;;;;-1.18;100.00;103606.19;5116323;28;20027;-79
2023/01/25 09:42:17;;;;;;;75.55;32.50;;;;;;;-1.14;100.00;103605.28;5117700;28;20027;-76
2023/01/25 09:45:00;;;;;;;69.50;32.55;;;;;;;-1.15;100.00;103603.56;5117659;28;20068;-78
2023/01/25 09:47:49;;;;;;;70.15;32.70;;;;;;;-1.07;100.00;103598.38;5117573;28;20127;-83
2023/01/25 09:50:33;;;;;;;67.95;31.42;;;;;;;-1.04;100.00;103589.66;5117507;28;20019;-77
2023/01/25 09:53:01;;;;;;;65.53;31.65;;;;;;;-1.02;100.00;103588.78;5117837;28;20032;-82
2023/01/25 09:55:29;;;;;;;63.25;31.05;;;;;;;-0.98;100.00;103587.91;5117380;28;20015;-78
2023/01/25 09:57:59;;;;;;;65.97;31.88;;;;;;;-0.98;100.00;103581.84;5117688;28;20451;-79
2023/01/25 10:00:49;;;;;;;66.40;32.42;;;;;;;-0.97;100.00;103576.59;5117889;28;20027;-83
2023/01/25 10:03:26;;;;;;;68.70;31.93;;;;;;;-0.93;100.00;103574.84;5107476;28;20035;-83
2023/01/25 10:06:00;;;;;;;65.05;31.38;;;;;;;-0.95;100.00;103568.78;5116446;28;20279;-82
2023/01/25 10:08:37;;;;;;;63.95;29.83;;;;;;;-0.85;100.00;103564.41;5117232;28;20026;-78
2023/01/25 10:11:15;;;;;;;62.90;31.52;;;;;;;-0.79;100.00;103549.59;5116541;28;20483;-77
2023/01/25 10:13:43;;;;;;;62.97;31.65;;;;;;;-0.77;100.00;103557.47;5117202;27;20030;-77
2023/01/25 10:16:21;;;;;;;68.05;33.28;;;;;;;-0.77;100.00;103553.09;5117159;28;20027;-78
2023/01/25 10:18:58;;;;;;;61.20;30.30;;;;;;;-0.76;100.00;103551.34;5115771;28;20471;-82
2023/01/25 10:21:36;;;;;;;71.57;33.13;;;;;;;-0.72;100.00;103551.38;5117837;27;20020;-82
2023/01/25 10:24:33;;;;;;;65.50;31.67;;;;;;;-0.65;100.00;103553.97;5118324;28;20023;-86
2023/01/25 10:27:38;;;;;;;65.18;31.30;;;;;;;-0.69;100.00;103547.84;5075083;28;20037;-85
2023/01/25 10:30:27;;;;;;;61.45;30.23;;;;;;;-0.75;100.00;103542.63;5093091;28;20035;-79
2023/01/25 10:32:59;;;;;;;59.38;28.92;;;;;;;-0.80;100.00;103547.00;5102308;28;20035;-78
2023/01/25 10:35:29;;;;;;;;;;;;;;;-0.83;100.00;103540.00;5116036;28;20031;-79
2023/01/25 10:38:00;;;;;;;57.47;28.52;;;;;;;-0.90;100.00;103539.16;5116223;28;19968;-78
2023/01/25 10:40:34;;;;;;;57.15;29.67;;;;;;;-0.95;100.00;103532.16;5116785;28;20103;-82
2023/01/25 10:43:05;;;;;;;51.95;26.70;;;;;;;-0.96;100.00;103526.06;5117087;28;20047;-78
2023/01/25 10:45:30;;;;;;;60.25;29.40;;;;;;;-0.89;100.00;103533.03;5117116;28;20051;-78
2023/01/25 10:48:07;;;;;;;64.13;30.42;;;;;;;-0.85;100.00;103528.69;5117279;28;20028;-80
2023/01/25 10:50:45;;;;;;;58.28;28.95;;;;;;;-0.84;100.00;103521.72;5116689;28;20031;-81
2023/01/25 10:53:35;;;;;;;61.88;28.88;;;;;;;-0.84;100.00;103514.72;5117263;28;20027;-79
2023/01/25 10:56:09;;;;;;;60.28;29.63;;;;;;;-0.82;100.00;103512.13;5116261;28;20051;-77
2023/01/25 10:58:41;;;;;;;61.80;31.00;;;;;;;-0.79;100.00;103502.53;5117025;28;20034;-78
2023/01/25 11:01:13;;;;;;;66.45;29.50;;;;;;;-0.79;100.00;103499.03;5115017;28;20030;-79
2023/01/25 11:03:43;;;;;;;64.97;29.80;;;;;;;-0.78;100.00;103491.19;5115804;28;20019;-77
2023/01/25 11:06:09;;;;;;;62.88;30.20;;;;;;;-0.78;100.00;103478.13;5115581;28;20136;-80
2023/01/25 11:08:39;;;;;;;66.72;29.95;;;;;;;-0.82;100.00;103481.63;5116463;28;20031;-76